Data for 03/19/2006

Time Sea-Level Adjusted Pressure Absolute Pressure Temperature Relative Humidity Dew Point   
(mb) (inHg) (mb) (inHg) (C) (F) (%) (C) (F)
00:05 1011 29.85 840 24.81 -1.5 29.4 88 -3.3 26.1
00:10 1011 29.85 840 24.81 -1.6 29.2 89 -3.1 26.4
00:15 1011 29.85 840 24.81 -1.6 29.1 89 -3.2 26.3
00:20 1011 29.85 840 24.81 -1.6 29.1 89 -3.2 26.3
00:25 1011 29.85 840 24.81 -1.6 29.2 87 -3.4 25.9
00:30 1011 29.85 840 24.81 -1.5 29.4 86 -3.4 25.8
00:35 1011 29.85 840 24.81 -1.5 29.4 85 -3.6 25.5
00:40 1011 29.85 840 24.81 -1.5 29.3 87 -3.4 25.8
00:45 1011 29.85 840 24.81 -1.5 29.3 87 -3.5 25.8
00:50 1011 29.85 840 24.81 -1.5 29.3 87 -3.4 26
00:55 1011 29.85 840 24.81 -1.7 29 89 -3.2 26.2
01:00 1011 29.85 840 24.81 -1.9 28.7 92 -3.1 26.5
01:05 1011 29.85 840 24.81 -2 28.4 92 -3 26.5
01:10 1011 29.85 840 24.81 -2.1 28.3 93 -3.1 26.4
01:15 1011 29.85 840 24.81 -2.1 28.2 93 -3.1 26.5
01:20 1011 29.85 840 24.81 -2.2 28.1 94 -3 26.6
01:25 1011 29.85 840 24.81 -2.2 28.1 93 -3.1 26.4
01:30 1011 29.85 840 24.81 -2.2 28 92 -3.3 26.1
01:35 1011 29.85 840 24.81 -2.3 27.9 93 -3.3 26.1
01:40 1011 29.85 840 24.81 -2.3 27.9 93 -3.3 26.1
01:45 1011 29.85 840 24.81 -2.2 28 92 -3.4 25.9
01:50 1011 29.85 840 24.81 -2.3 27.9 93 -3.3 26.1
01:55 1011 29.85 840 24.81 -2.3 27.8 93 -3.4 26
02:00 1011 29.85 840 24.81 -2.3 27.8 92 -3.4 25.9
02:05 1011 29.85 840 24.81 -2.3 27.8 93 -3.3 26
02:10 1011 29.85 840 24.81 -2.3 27.8 92 -3.5 25.8
02:15 1011 29.85 840 24.81 -2.3 27.8 93 -3.4 25.9
02:20 1011 29.85 840 24.81 -2.4 27.7 92 -3.5 25.8
02:25 1011 29.85 840 24.81 -2.4 27.7 92 -3.5 25.6
02:30 1011 29.85 840 24.81 -2.4 27.7 91 -3.7 25.4
02:35 1011 29.85 840 24.81 -2.3 27.9 90 -3.8 25.2
02:40 1011 29.85 840 24.81 -2.3 27.8 91 -3.6 25.5
02:45 1011 29.85 840 24.81 -2.4 27.6 93 -3.5 25.8
02:50 1011 29.85 840 24.81 -2.6 27.4 93 -3.5 25.6
02:55 1011 29.85 840 24.81 -2.6 27.3 94 -3.5 25.7
03:00 1011 29.85 840 24.81 -2.7 27.2 95 -3.4 25.8
03:05 1011 29.85 840 24.81 -2.8 27 95 -3.4 25.9
03:10 1011 29.85 840 24.81 -2.8 26.9 96 -3.4 25.8
03:15 1011 29.85 840 24.81 -2.7 27.1 94 -3.5 25.7
03:20 1011 29.85 840 24.81 -2.7 27.1 94 -3.6 25.6
03:25 1011 29.85 840 24.81 -2.7 27.2 93 -3.6 25.5
03:30 1011 29.85 840 24.81 -2.6 27.3 92 -3.7 25.3
03:35 1011 29.85 840 24.81 -2.6 27.3 92 -3.8 25.2
03:40 1011 29.85 840 24.81 -2.7 27.2 92 -3.8 25.2
03:45 1011 29.85 840 24.81 -2.8 27 92 -3.8 25.1
03:50 1011 29.85 840 24.81 -2.8 27 93 -3.8 25.2
03:55 1011 29.85 840 24.81 -2.8 26.9 93 -3.7 25.3
04:00 1011 29.85 840 24.81 -2.9 26.8 95 -3.6 25.5
04:05 1011 29.85 840 24.81 -2.9 26.8 95 -3.6 25.6
04:10 1011 29.85 840 24.81 -2.9 26.9 95 -3.6 25.5
04:15 1011 29.85 840 24.81 -2.8 26.9 94 -3.6 25.5
04:20 1011 29.85 840 24.81 -2.8 27 94 -3.7 25.4
04:25 1011 29.85 840 24.81 -2.8 27 93 -3.8 25.1
04:30 1011 29.85 840 24.81 -2.7 27.1 93 -3.8 25.2
04:35 1011 29.85 840 24.81 -2.7 27.1 92 -3.9 25.1
04:40 1011 29.85 840 24.81 -2.7 27.1 92 -3.9 25
04:45 1011 29.85 840 24.81 -2.7 27.2 92 -3.9 25.1
04:50 1011 29.85 840 24.81 -2.7 27.2 92 -3.9 25.1
04:55 1011 29.85 841 24.83 -2.7 27.1 92 -3.9 25
05:00 1011 29.85 841 24.83 -2.8 27 92 -3.8 25.1
05:05 1011 29.85 841 24.83 -2.8 27 93 -3.8 25.1
05:10 1011 29.85 841 24.83 -2.8 27 92 -3.9 25
05:15 1011 29.85 841 24.83 -2.7 27.1 92 -3.9 24.9
05:20 1012 29.88 841 24.83 -2.7 27.1 92 -3.9 25
05:25 1012 29.88 841 24.83 -2.7 27.2 91 -4 24.9
05:30 1012 29.88 841 24.83 -2.7 27.2 92 -3.9 25
05:35 1012 29.88 841 24.83 -2.6 27.3 92 -3.8 25.2
05:40 1012 29.88 841 24.83 -2.7 27.2 92 -3.9 25.1
05:45 1012 29.88 841 24.83 -2.6 27.3 91 -3.8 25.1
05:50 1012 29.88 841 24.83 -2.6 27.3 91 -3.9 25
05:55 1012 29.88 841 24.83 -2.6 27.4 91 -3.8 25.1
06:00 1012 29.88 841 24.83 -2.6 27.3 91 -3.9 25
06:05 1012 29.88 841 24.83 -2.5 27.5 91 -3.8 25.2
06:10 1012 29.88 841 24.83 -2.5 27.5 90 -3.9 25
06:15 1012 29.88 841 24.83 -2.5 27.4 90 -4 24.8
06:20 1012 29.88 841 24.83 -2.6 27.3 90 -4 24.9
06:25 1012 29.88 841 24.83 -2.8 27 91 -4 24.8
06:30 1012 29.88 841 24.83 -2.8 26.9 92 -4 24.8
06:35 1012 29.88 841 24.83 -2.9 26.9 91 -4.1 24.6
06:40 1012 29.88 841 24.83 -2.9 26.8 91 -4.1 24.6
06:45 1012 29.88 841 24.83 -2.9 26.8 91 -4.1 24.7
06:50 1012 29.88 841 24.83 -3 26.7 89 -4.5 23.8
06:55 1012 29.88 842 24.86 -2.9 26.8 87 -4.7 23.6
07:00 1012 29.88 842 24.86 -2.8 26.9 87 -4.6 23.7
07:05 1012 29.88 842 24.86 -2.9 26.8 87 -4.7 23.5
07:10 1012 29.88 842 24.86 -2.9 26.8 88 -4.6 23.8
07:15 1012 29.88 842 24.86 -2.9 26.8 87 -4.8 23.4
07:20 1012 29.88 842 24.86 -2.8 27 87 -4.6 23.7
07:25 1012 29.88 842 24.86 -2.8 27 87 -4.7 23.6
07:30 1012 29.88 842 24.86 -2.8 27 87 -4.6 23.6
07:35 1013 29.91 842 24.86 -2.7 27.1 86 -4.8 23.4
07:40 1013 29.91 842 24.86 -2.6 27.3 83 -5.1 22.8
07:45 1013 29.91 842 24.86 -2.5 27.6 83 -5 23
07:50 1013 29.91 842 24.86 -2.4 27.7 83 -4.9 23.1
07:55 1013 29.91 842 24.86 -2.4 27.7 83 -4.8 23.3
08:00 1013 29.91 842 24.86 -2.3 27.8 83 -4.8 23.3
08:05 1013 29.91 842 24.86 -2.1 28.1 85 -4.4 24.1
08:10 1013 29.91 842 24.86 -2.2 28 83 -4.8 23.4
08:15 1013 29.91 842 24.86 -2.2 28 82 -4.9 23.1
08:20 1013 29.91 842 24.86 -2.4 27.7 84 -4.7 23.6
08:25 1013 29.91 842 24.86 -2.6 27.2 85 -4.8 23.4
08:30 1013 29.91 842 24.86 -3 26.5 87 -5 23.1
08:35 1013 29.91 842 24.86 -4 24.8 90 -5.4 22.2
08:40 1013 29.91 842 24.86 -4.7 23.5 93 -5.6 21.8
08:45 1013 29.91 842 24.86 -4.6 23.7 92 -5.7 21.8
08:50 1013 29.91 842 24.86 -4.4 24.2 91 -5.7 21.8
08:55 1013 29.91 842 24.86 -4.2 24.4 90 -5.6 21.9
09:00 1013 29.91 842 24.86 -4.4 24 91 -5.7 21.7
09:05 1013 29.91 843 24.89 -4.5 24 90 -5.9 21.4
09:10 1013 29.91 843 24.89 -4.6 23.8 89 -6.1 21
09:15 1013 29.91 843 24.89 -4.8 23.4 90 -6.2 20.9
09:20 1013 29.91 843 24.89 -4.9 23.3 90 -6.3 20.6
09:25 1013 29.91 843 24.89 -5 23.1 90 -6.3 20.7
09:30 1014 29.94 843 24.89 -5 23.1 91 -6.2 20.8
09:35 1014 29.94 843 24.89 -4.9 23.1 90 -6.3 20.6
09:40 1014 29.94 843 24.89 -4.9 23.2 90 -6.3 20.7
09:45 1014 29.94 843 24.89 -5 23 89 -6.5 20.2
09:50 1014 29.94 843 24.89 -4.9 23.2 90 -6.3 20.6
09:55 1014 29.94 843 24.89 -4.8 23.3 88 -6.5 20.4
10:00 1014 29.94 843 24.89 -4.9 23.3 90 -6.3 20.7
10:05 1014 29.94 843 24.89 -4.9 23.3 88 -6.5 20.3
10:10 1014 29.94 843 24.89 -5 23.1 89 -6.5 20.3
10:15 1014 29.94 843 24.89 -5 23 89 -6.5 20.3
10:20 1014 29.94 843 24.89 -4.8 23.4 88 -6.4 20.5
10:25 1014 29.94 843 24.89 -5 23.1 89 -6.6 20.2
10:30 1014 29.94 843 24.89 -4.9 23.2 89 -6.5 20.4
10:35 1014 29.94 843 24.89 -4.6 23.7 87 -6.4 20.5
10:40 1014 29.94 843 24.89 -4.7 23.6 88 -6.4 20.5
10:45 1014 29.94 843 24.89 -4.8 23.3 88 -6.6 20.1
10:50 1014 29.94 843 24.89 -4.7 23.5 88 -6.4 20.6
10:55 1014 29.94 843 24.89 -4.5 24 88 -6.2 20.8
11:00 1014 29.94 843 24.89 -4.3 24.2 87 -6.2 20.9
11:05 1014 29.94 843 24.89 -4.5 23.9 86 -6.5 20.3
11:10 1014 29.94 843 24.89 -4.6 23.6 86 -6.6 20.1
11:15 1014 29.94 843 24.89 -4.6 23.7 87 -6.4 20.5
11:20 1014 29.94 843 24.89 -4.8 23.4 87 -6.5 20.2
11:25 1014 29.94 843 24.89 -4.4 24.1 87 -6.2 20.8
11:30 1014 29.94 843 24.89 -4.5 24 87 -6.2 20.8
11:35 1014 29.94 843 24.89 -4.6 23.8 86 -6.6 20.2
11:40 1014 29.94 843 24.89 -4.6 23.8 86 -6.5 20.3
11:45 1014 29.94 843 24.89 -4.5 23.9 86 -6.4 20.4
11:50 1014 29.94 843 24.89 -4.2 24.4 85 -6.4 20.4
11:55 1014 29.94 843 24.89 -4.1 24.6 84 -6.4 20.5
12:00 1014 29.94 843 24.89 -3.7 25.4 83 -6.2 20.8
12:05 1014 29.94 843 24.89 -3.2 26.2 83 -5.8 21.6
12:10 1014 29.94 843 24.89 -3.5 25.7 83 -5.9 21.3
12:15 1014 29.94 843 24.89 -3.4 25.8 81 -6.2 20.8
12:20 1014 29.94 843 24.89 -3.3 26 83 -5.9 21.5
12:25 1014 29.94 843 24.89 -2.9 26.7 82 -5.7 21.8
12:30 1014 29.94 843 24.89 -3.2 26.3 82 -5.9 21.4
12:35 1014 29.94 843 24.89 -3.1 26.5 83 -5.6 21.9
12:40 1014 29.94 843 24.89 -2 28.4 74 -6 21.3
12:45 1014 29.94 843 24.89 -2.5 27.6 80 -5.5 22.1
12:50 1014 29.94 843 24.89 -1.7 28.9 73 -6 21.2
12:55 1014 29.94 843 24.89 -1.9 28.6 76 -5.6 21.9
13:00 1014 29.94 843 24.89 -2.5 27.4 80 -5.5 22.2
13:05 1014 29.94 843 24.89 -2.2 28 78 -5.5 22
13:10 1014 29.94 843 24.89 -2 28.4 78 -5.3 22.4
13:15 1014 29.94 843 24.89 -1.7 28.9 76 -5.5 22.2
13:20 1014 29.94 843 24.89 -2 28.4 75 -5.8 21.5
13:25 1014 29.94 843 24.89 -2.3 27.9 77 -5.8 21.6
13:30 1014 29.94 843 24.89 -2.5 27.5 79 -5.7 21.8
13:35 1014 29.94 843 24.89 -2.3 27.9 79 -5.5 22
13:40 1014 29.94 843 24.89 -2.4 27.7 79 -5.5 22
13:45 1014 29.94 843 24.89 -2.5 27.5 78 -5.9 21.4
13:50 1014 29.94 843 24.89 -2.5 27.5 80 -5.6 22
13:55 1014 29.94 843 24.89 -2.4 27.6 78 -5.7 21.8
14:00 1014 29.94 843 24.89 -2.6 27.4 79 -5.7 21.7
14:05 1014 29.94 843 24.89 -3 26.6 80 -6 21.2
14:10 1014 29.94 843 24.89 -3 26.6 80 -5.9 21.3
14:15 1014 29.94 843 24.89 -2.8 27 81 -5.5 22
14:20 1014 29.94 843 24.89 -2.8 27 80 -5.8 21.6
14:25 1014 29.94 843 24.89 -2.8 26.9 80 -5.9 21.5
14:30 1014 29.94 843 24.89 -3.1 26.5 80 -6 21.2
14:35 1014 29.94 843 24.89 -3 26.6 80 -5.9 21.3
14:40 1014 29.94 843 24.89 -3.2 26.3 82 -5.8 21.6
14:45 1014 29.94 843 24.89 -3 26.6 81 -5.8 21.5
14:50 1014 29.94 843 24.89 -3 26.6 82 -5.6 21.9
14:55 1014 29.94 843 24.89 -3.1 26.5 83 -5.6 21.9
15:00 1014 29.94 843 24.89 -3.2 26.2 83 -5.7 21.7
15:05 1014 29.94 843 24.89 -3.4 25.9 84 -5.8 21.5
15:10 1014 29.94 843 24.89 -3.5 25.7 84 -5.8 21.5
15:15 1014 29.94 843 24.89 -3.4 25.8 83 -5.9 21.4
15:20 1014 29.94 843 24.89 -3.8 25.2 85 -5.9 21.3
15:25 1014 29.94 843 24.89 -3.5 25.6 84 -5.9 21.4
15:30 1014 29.94 843 24.89 -3.3 26 84 -5.7 21.7
15:35 1014 29.94 843 24.89 -3.4 25.8 84 -5.8 21.6
15:40 1014 29.94 843 24.89 -3.4 25.9 83 -5.9 21.4
15:45 1014 29.94 843 24.89 -3.4 25.8 83 -5.9 21.3
15:50 1014 29.94 843 24.89 -3.5 25.6 83 -6 21.2
15:55 1014 29.94 843 24.89 -3.5 25.8 83 -5.9 21.4
16:00 1014 29.94 843 24.89 -3.3 26 83 -5.8 21.6
16:05 1014 29.94 843 24.89 -3.3 26.1 83 -5.7 21.7
16:10 1014 29.94 843 24.89 -3.2 26.3 83 -5.6 21.9
16:15 1014 29.94 843 24.89 -3.2 26.2 83 -5.7 21.8
16:20 1014 29.94 843 24.89 -3.4 25.9 84 -5.7 21.7
16:25 1014 29.94 843 24.89 -3.6 25.5 84 -5.9 21.4
16:30 1014 29.94 843 24.89 -3.7 25.4 85 -5.9 21.4
16:35 1014 29.94 843 24.89 -3.7 25.4 85 -5.8 21.6
16:40 1014 29.94 843 24.89 -3.4 25.8 83 -5.9 21.4
16:45 1014 29.94 843 24.89 -3.4 25.8 84 -5.8 21.5
16:50 1014 29.94 843 24.89 -3.6 25.5 86 -5.7 21.8
16:55 1014 29.94 843 24.89 -3.6 25.6 85 -5.8 21.5
17:00 1014 29.94 843 24.89 -3.6 25.5 85 -5.8 21.5
17:05 1014 29.94 843 24.89 -3.5 25.8 85 -5.7 21.8
17:10 1014 29.94 843 24.89 -3.5 25.7 84 -5.8 21.6
17:15 1014 29.94 843 24.89 -3.7 25.4 86 -5.7 21.7
17:20 1014 29.94 843 24.89 -3.6 25.6 84 -5.8 21.5
17:25 1014 29.94 843 24.89 -3.7 25.3 85 -5.8 21.5
17:30 1014 29.94 843 24.89 -4 24.8 86 -6.1 21.1
17:35 1014 29.94 843 24.89 -4.1 24.6 86 -6.1 20.9
17:40 1014 29.94 843 24.89 -4.1 24.6 87 -6 21.2
17:45 1014 29.94 843 24.89 -4 24.8 84 -6.3 20.6
17:50 1014 29.94 843 24.89 -4.1 24.6 83 -6.6 20.1
17:55 1014 29.94 843 24.89 -4.2 24.4 82 -6.8 19.8
18:00 1014 29.94 843 24.89 -4.3 24.3 81 -7 19.4
18:05 1014 29.94 843 24.89 -4.3 24.2 81 -7.1 19.3
18:10 1014 29.94 843 24.89 -4.3 24.3 80 -7.2 19.1
18:15 1014 29.94 843 24.89 -4.3 24.2 80 -7.3 18.9
18:20 1014 29.94 843 24.89 -4.3 24.3 80 -7.2 19
18:25 1014 29.94 843 24.89 -4.3 24.3 79 -7.3 18.8
18:30 1014 29.94 843 24.89 -4.4 24.1 81 -7.2 19
18:35 1014 29.94 843 24.89 -4.5 23.9 81 -7.3 18.9
18:40 1014 29.94 843 24.89 -4.5 23.9 81 -7.2 19
18:45 1014 29.94 843 24.89 -4.5 23.9 82 -7.2 19.1
18:50 1014 29.94 843 24.89 -4.5 23.9 81 -7.3 18.8
18:55 1014 29.94 843 24.89 -4.5 23.9 81 -7.3 18.9
19:00 1014 29.94 843 24.89 -4.4 24 80 -7.4 18.6
19:05 1014 29.94 843 24.89 -4.5 24 80 -7.4 18.7
19:10 1014 29.94 843 24.89 -4.4 24 80 -7.3 18.8
19:15 1014 29.94 843 24.89 -4.5 24 81 -7.3 18.9
19:20 1014 29.94 843 24.89 -4.5 23.8 81 -7.4 18.7
19:25 1014 29.94 843 24.89 -4.5 23.9 82 -7.2 19.1
19:30 1014 29.94 843 24.89 -4.5 23.9 81 -7.3 18.9
19:35 1014 29.94 843 24.89 -4.5 23.9 81 -7.2 19
19:40 1014 29.94 843 24.89 -4.6 23.8 82 -7.2 19
19:45 1014 29.94 843 24.89 -4.6 23.8 81 -7.3 18.8
19:50 1014 29.94 844 24.92 -4.6 23.7 81 -7.3 18.8
19:55 1014 29.94 844 24.92 -4.6 23.8 81 -7.3 18.9
20:00 1014 29.94 844 24.92 -4.6 23.7 80 -7.5 18.4
20:05 1014 29.94 844 24.92 -4.6 23.7 80 -7.5 18.5
20:10 1014 29.94 844 24.92 -4.6 23.7 80 -7.6 18.4
20:15 1014 29.94 844 24.92 -4.7 23.6 81 -7.5 18.4
20:20 1014 29.94 844 24.92 -4.7 23.5 80 -7.6 18.2
20:25 1014 29.94 844 24.92 -4.8 23.4 80 -7.8 18
20:30 1014 29.94 844 24.92 -4.8 23.4 79 -7.9 17.7
20:35 1014 29.94 844 24.92 -4.8 23.4 80 -7.8 18
20:40 1014 29.94 844 24.92 -4.9 23.2 80 -7.9 17.8
20:45 1015 29.97 844 24.92 -4.9 23.2 79 -8 17.7
20:50 1015 29.97 844 24.92 -4.9 23.1 80 -7.9 17.8
20:55 1015 29.97 844 24.92 -4.9 23.1 80 -7.9 17.8
21:00 1015 29.97 844 24.92 -5 23 80 -7.9 17.7
21:05 1015 29.97 844 24.92 -5 22.9 80 -7.9 17.8
21:10 1015 29.97 844 24.92 -5 23 81 -7.8 17.9
21:15 1015 29.97 844 24.92 -5 22.9 79 -8.1 17.4
21:20 1015 29.97 844 24.92 -5 22.9 80 -8 17.5
21:25 1015 29.97 844 24.92 -5 23 79 -8.1 17.4
21:30 1015 29.97 844 24.92 -5 23 79 -8.2 17.3
21:35 1015 29.97 844 24.92 -5 22.9 79 -8.2 17.3
21:40 1014 29.94 844 24.92 -5 23 78 -8.2 17.2
21:45 1014 29.94 844 24.92 -4.9 23.1 78 -8.2 17.2
21:50 1015 29.97 844 24.92 -5 23 79 -8.2 17.3
21:55 1015 29.97 844 24.92 -5 22.9 80 -8 17.6
22:00 1015 29.97 844 24.92 -5.1 22.8 80 -8 17.5
22:05 1015 29.97 844 24.92 -5.2 22.6 81 -8.1 17.4
22:10 1014 29.94 844 24.92 -5.2 22.6 80 -8.1 17.5
22:15 1014 29.94 844 24.92 -5.2 22.6 81 -8 17.5
22:20 1014 29.94 844 24.92 -5.3 22.4 81 -8.1 17.4
22:25 1014 29.94 844 24.92 -5.3 22.4 80 -8.2 17.2
22:30 1014 29.94 844 24.92 -5.3 22.4 81 -8.1 17.4
22:35 1014 29.94 844 24.92 -5.3 22.5 81 -8.1 17.3
22:40 1014 29.94 844 24.92 -5.3 22.5 82 -7.9 17.8
22:45 1014 29.94 844 24.92 -5.4 22.3 83 -7.9 17.8
22:50 1014 29.94 844 24.92 -5.5 22.1 83 -7.9 17.8
22:55 1014 29.94 844 24.92 -5.4 22.2 83 -7.9 17.8
23:00 1014 29.94 844 24.92 -5.5 22.1 84 -7.8 17.9
23:05 1014 29.94 843 24.89 -5.5 22 83 -7.9 17.7
23:10 1014 29.94 843 24.89 -5.6 21.9 84 -7.9 17.7
23:15 1014 29.94 843 24.89 -5.7 21.8 84 -7.9 17.8
23:20 1014 29.94 843 24.89 -5.7 21.7 85 -7.8 17.9
23:25 1014 29.94 843 24.89 -5.8 21.6 86 -7.7 18.1
23:30 1014 29.94 843 24.89 -5.8 21.5 87 -7.6 18.3
23:35 1014 29.94 843 24.89 -5.9 21.3 88 -7.6 18.3
23:40 1014 29.94 843 24.89 -6 21.1 89 -7.6 18.3
23:45 1014 29.94 843 24.89 -6 21.2 89 -7.6 18.4
23:50 1014 29.94 843 24.89 -6 21.1 89 -7.5 18.5
23:55 1014 29.94 843 24.89 -6 21.1 89 -7.6 18.4
24:00 1014 29.94 843 24.89 -6.1 21.1 89 -7.6 18.4